Wetterdaten: Woche 11.08.14 - 17.08.14 (KW33)
Datum Zeit Temp. Aussen +5cm Feuchte Auss Luftdruck Regen Sonnenschein Regendauer UV Solar Windben
11.08.2014 00:00 16,4 C 14,7 C 81 % 1006,4 hPa 0,0 l/m 0,00 h 0,00 h 0,0 UV-I 0 W/m 50,0 km/h (6 Bft)
11.08.2014 01:00 15,8 C 14,2 C 83 % 1007,0 hPa 0,0 l/m 0,00 h 0,00 h 0,0 UV-I 0 W/m 46,9 km/h (6 Bft)
11.08.2014 02:00 15,2 C 13,9 C 85 % 1007,3 hPa 0,0 l/m 0,00 h 0,00 h 0,0 UV-I 0 W/m 43,8 km/h (6 Bft)
11.08.2014 03:00 14,8 C 13,4 C 86 % 1008,0 hPa 0,0 l/m 0,00 h 0,00 h 0,0 UV-I 0 W/m 35,6 km/h (5 Bft)
11.08.2014 04:00 14,3 C 13,0 C 86 % 1008,5 hPa 0,0 l/m 0,00 h 0,00 h 0,0 UV-I 0 W/m 28,2 km/h (4 Bft)
11.08.2014 05:00 14,2 C 12,8 C 87 % 1009,1 hPa 0,0 l/m 0,00 h 0,00 h 0,0 UV-I 0 W/m 27,2 km/h (4 Bft)
11.08.2014 06:00 13,9 C 12,8 C 88 % 1009,5 hPa 0,0 l/m 0,30 h 0,00 h 0,0 UV-I 28 W/m 28,3 km/h (4 Bft)
11.08.2014 07:00 14,2 C 13,0 C 87 % 1010,0 hPa 0,0 l/m 1,00 h 0,00 h 0,0 UV-I 148 W/m 33,2 km/h (5 Bft)
11.08.2014 08:00 15,3 C 14,0 C 85 % 1010,5 hPa 0,0 l/m 1,00 h 0,00 h 0,2 UV-I 301 W/m 34,0 km/h (5 Bft)
11.08.2014 09:00 16,8 C 15,8 C 81 % 1010,9 hPa 0,0 l/m 0,90 h 0,00 h 0,8 UV-I 397 W/m 42,6 km/h (6 Bft)
11.08.2014 10:00 18,0 C 18,8 C 75 % 1011,2 hPa 0,0 l/m 0,67 h 0,00 h 1,7 UV-I 454 W/m 45,6 km/h (6 Bft)
11.08.2014 11:00 19,4 C 19,4 C 70 % 1011,6 hPa 0,0 l/m 0,80 h 0,00 h 2,9 UV-I 702 W/m 50,7 km/h (7 Bft)
11.08.2014 12:00 20,2 C 20,4 C 65 % 1011,8 hPa 0,0 l/m 0,67 h 0,00 h 3,6 UV-I 570 W/m 52,1 km/h (7 Bft)
11.08.2014 13:00 21,0 C 20,4 C 61 % 1011,5 hPa 0,0 l/m 0,80 h 0,00 h 3,9 UV-I 669 W/m 53,3 km/h (7 Bft)
11.08.2014 14:00 21,9 C 20,9 C 59 % 1011,3 hPa 0,0 l/m 0,90 h 0,00 h 3,7 UV-I 695 W/m 48,7 km/h (6 Bft)
11.08.2014 15:00 20,5 C 19,8 C 65 % 1011,5 hPa 0,0 l/m 0,33 h 0,13 h 1,8 UV-I 381 W/m 43,0 km/h (6 Bft)
11.08.2014 16:00 21,3 C 20,8 C 61 % 1011,4 hPa 0,0 l/m 0,63 h 0,00 h 2,1 UV-I 424 W/m 37,7 km/h (5 Bft)
11.08.2014 17:00 18,1 C 15,9 C 79 % 1011,6 hPa 1,0 l/m 0,20 h 0,13 h 0,8 UV-I 237 W/m 32,6 km/h (5 Bft)
11.08.2014 18:00 17,8 C 14,9 C 76 % 1011,8 hPa 0,2 l/m 0,00 h 0,10 h 0,0 UV-I 81 W/m 28,9 km/h (5 Bft)
11.08.2014 19:00 16,6 C 14,0 C 79 % 1012,0 hPa 0,0 l/m 0,00 h 0,30 h 0,0 UV-I 50 W/m 36,4 km/h (5 Bft)
11.08.2014 20:00 15,6 C 13,8 C 86 % 1011,7 hPa 0,0 l/m 0,00 h 0,10 h 0,0 UV-I 26 W/m 25,8 km/h (4 Bft)
11.08.2014 21:00 15,3 C 13,9 C 87 % 1011,6 hPa 0,0 l/m 0,00 h 0,00 h 0,0 UV-I 0 W/m 25,2 km/h (4 Bft)
11.08.2014 22:00 15,5 C 14,1 C 86 % 1011,6 hPa 0,0 l/m 0,00 h 0,00 h 0,0 UV-I 0 W/m 32,0 km/h (5 Bft)
11.08.2014 23:00 15,8 C 14,3 C 84 % 1011,4 hPa 0,0 l/m 0,00 h 0,00 h 0,0 UV-I 0 W/m 36,6 km/h (5 Bft)
12.08.2014 00:00 15,1 C 13,6 C 85 % 1011,2 hPa 0,0 l/m 0,00 h 0,00 h 0,0 UV-I 0 W/m 27,1 km/h (4 Bft)
12.08.2014 01:00 14,6 C 13,4 C 87 % 1011,1 hPa 0,2 l/m 0,00 h 0,00 h 0,0 UV-I 0 W/m 25,3 km/h (4 Bft)
12.08.2014 02:00 14,2 C 13,0 C 89 % 1010,9 hPa 0,0 l/m 0,00 h 0,00 h 0,0 UV-I 0 W/m 25,6 km/h (4 Bft)
12.08.2014 03:00 14,2 C 12,9 C 89 % 1010,7 hPa 0,0 l/m 0,00 h 0,00 h 0,0 UV-I 0 W/m 30,9 km/h (5 Bft)
12.08.2014 04:00 14,0 C 12,8 C 90 % 1010,6 hPa 0,0 l/m 0,00 h 0,00 h 0,0 UV-I 0 W/m 30,4 km/h (5 Bft)
12.08.2014 05:00 13,7 C 12,4 C 91 % 1010,4 hPa 0,0 l/m 0,00 h 0,00 h 0,0 UV-I 0 W/m 28,6 km/h (4 Bft)
12.08.2014 06:00 13,4 C 12,2 C 92 % 1010,4 hPa 0,0 l/m 0,33 h 0,00 h 0,0 UV-I 27 W/m 27,4 km/h (4 Bft)
12.08.2014 07:00 13,9 C 12,7 C 91 % 1010,8 hPa 0,0 l/m 0,90 h 0,00 h 0,0 UV-I 135 W/m 27,7 km/h (4 Bft)
12.08.2014 08:00 14,9 C 13,7 C 87 % 1011,0 hPa 0,0 l/m 1,00 h 0,00 h 0,0 UV-I 300 W/m 38,6 km/h (5 Bft)
12.08.2014 09:00 16,5 C 15,5 C 81 % 1011,2 hPa 0,0 l/m 0,70 h 0,00 h 0,7 UV-I 318 W/m 44,9 km/h (6 Bft)
12.08.2014 10:00 17,6 C 17,6 C 77 % 1011,3 hPa 0,0 l/m 0,47 h 0,00 h 1,3 UV-I 350 W/m 50,1 km/h (7 Bft)
12.08.2014 11:00 18,8 C 18,4 C 71 % 1011,3 hPa 0,0 l/m 0,77 h 0,00 h 2,4 UV-I 535 W/m 47,6 km/h (6 Bft)
12.08.2014 12:00 19,3 C 18,6 C 70 % 1011,1 hPa 0,0 l/m 0,30 h 0,22 h 2,5 UV-I 354 W/m 52,7 km/h (7 Bft)
12.08.2014 13:00 19,4 C 18,3 C 68 % 1010,9 hPa 0,6 l/m 0,37 h 0,20 h 2,8 UV-I 436 W/m 53,5 km/h (7 Bft)
12.08.2014 14:00 18,4 C 15,8 C 79 % 1010,4 hPa 0,4 l/m 0,80 h 0,27 h 3,4 UV-I 618 W/m 37,7 km/h (5 Bft)
12.08.2014 15:00 20,7 C 17,9 C 65 % 1009,7 hPa 0,0 l/m 0,73 h 0,00 h 2,6 UV-I 535 W/m 45,9 km/h (6 Bft)
12.08.2014 16:00 19,0 C 17,0 C 70 % 1009,5 hPa 3,8 l/m 0,13 h 0,37 h 1,7 UV-I 174 W/m 43,6 km/h (6 Bft)
12.08.2014 17:00 14,0 C 12,6 C 94 % 1010,3 hPa 2,0 l/m 0,00 h 0,97 h 0,0 UV-I 47 W/m 35,9 km/h (5 Bft)
12.08.2014 18:00 14,4 C 12,8 C 93 % 1009,4 hPa 1,0 l/m 0,33 h 0,38 h 0,0 UV-I 146 W/m 21,7 km/h (4 Bft)
12.08.2014 19:00 14,9 C 13,4 C 93 % 1009,1 hPa 0,0 l/m 0,00 h 0,10 h 0,0 UV-I 46 W/m 21,3 km/h (4 Bft)
12.08.2014 20:00 14,6 C 13,0 C 92 % 1008,9 hPa 0,0 l/m 0,40 h 0,00 h 0,0 UV-I 37 W/m 22,9 km/h (4 Bft)
12.08.2014 21:00 13,8 C 12,2 C 93 % 1009,0 hPa 0,0 l/m 0,00 h 0,00 h 0,0 UV-I 0 W/m 19,9 km/h (4 Bft)
12.08.2014 22:00 13,5 C 12,0 C 93 % 1008,9 hPa 0,0 l/m 0,00 h 0,00 h 0,0 UV-I 0 W/m 20,7 km/h (4 Bft)
12.08.2014 23:00 13,5 C 12,2 C 93 % 1008,8 hPa 0,0 l/m 0,00 h 0,00 h 0,0 UV-I 0 W/m 17,1 km/h (3 Bft)
13.08.2014 00:00 14,2 C 12,7 C 90 % 1008,4 hPa 0,0 l/m 0,00 h 0,00 h 0,0 UV-I 0 W/m 17,6 km/h (3 Bft)
13.08.2014 01:00 13,8 C 12,1 C 92 % 1007,9 hPa 0,0 l/m 0,00 h 0,00 h 0,0 UV-I 0 W/m 8,1 km/h (2 Bft)
13.08.2014 02:00 13,4 C 12,0 C 94 % 1007,3 hPa 0,0 l/m 0,00 h 0,00 h 0,0 UV-I 0 W/m 12,2 km/h (2 Bft)
13.08.2014 03:00 13,6 C 12,2 C 95 % 1006,7 hPa 0,0 l/m 0,00 h 0,00 h 0,0 UV-I 0 W/m 12,0 km/h (2 Bft)
13.08.2014 04:00 12,8 C 11,3 C 96 % 1006,5 hPa 0,0 l/m 0,00 h 0,00 h 0,0 UV-I 0 W/m 0,3 km/h (0 Bft)
13.08.2014 05:00 12,1 C 10,8 C 97 % 1006,5 hPa 0,0 l/m 0,00 h 0,00 h 0,0 UV-I 0 W/m 1,8 km/h (1 Bft)
13.08.2014 06:00 12,1 C 11,0 C 98 % 1006,0 hPa 0,0 l/m 0,07 h 0,00 h 0,0 UV-I 16 W/m 1,3 km/h (1 Bft)
13.08.2014 07:00 12,5 C 11,9 C 98 % 1005,5 hPa 0,0 l/m 0,30 h 0,00 h 0,0 UV-I 86 W/m 8,1 km/h (2 Bft)
13.08.2014 08:00 14,1 C 13,6 C 98 % 1005,6 hPa 0,0 l/m 0,97 h 0,00 h 0,0 UV-I 248 W/m 18,8 km/h (3 Bft)
13.08.2014 09:00 16,7 C 16,0 C 90 % 1005,4 hPa 0,0 l/m 0,90 h 0,00 h 0,7 UV-I 274 W/m 13,6 km/h (3 Bft)
13.08.2014 10:00 17,5 C 17,0 C 86 % 1004,7 hPa 0,0 l/m 0,37 h 0,00 h 1,3 UV-I 322 W/m 12,3 km/h (3 Bft)
13.08.2014 11:00 18,7 C 18,1 C 82 % 1004,9 hPa 0,0 l/m 0,17 h 0,00 h 1,9 UV-I 341 W/m 8,4 km/h (2 Bft)
13.08.2014 12:00 19,6 C 19,2 C 76 % 1004,5 hPa 0,0 l/m 0,27 h 0,00 h 1,9 UV-I 327 W/m 13,1 km/h (3 Bft)
13.08.2014 13:00 19,2 C 18,8 C 77 % 1004,2 hPa 0,0 l/m 0,00 h 0,00 h 1,6 UV-I 290 W/m 7,2 km/h (2 Bft)
13.08.2014 14:00 19,6 C 19,3 C 74 % 1004,2 hPa 0,0 l/m 0,00 h 0,00 h 1,3 UV-I 259 W/m 11,4 km/h (2 Bft)
13.08.2014 15:00 19,8 C 19,4 C 73 % 1004,2 hPa 0,0 l/m 0,00 h 0,00 h 1,1 UV-I 244 W/m 12,7 km/h (3 Bft)
13.08.2014 16:00 20,2 C 19,9 C 72 % 1004,2 hPa 0,0 l/m 0,00 h 0,00 h 1,0 UV-I 273 W/m 10,9 km/h (2 Bft)
13.08.2014 17:00 20,7 C 19,8 C 69 % 1004,2 hPa 0,0 l/m 0,73 h 0,00 h 0,7 UV-I 342 W/m 20,2 km/h (4 Bft)
13.08.2014 18:00 20,5 C 18,8 C 68 % 1004,4 hPa 0,0 l/m 0,60 h 0,00 h 0,0 UV-I 220 W/m 22,7 km/h (4 Bft)
13.08.2014 19:00 20,0 C 17,6 C 65 % 1004,6 hPa 0,0 l/m 0,40 h 0,00 h 0,0 UV-I 99 W/m 22,5 km/h (4 Bft)
13.08.2014 20:00 18,3 C 16,1 C 72 % 1005,1 hPa 0,0 l/m 0,00 h 0,00 h 0,0 UV-I 21 W/m 18,0 km/h (3 Bft)
13.08.2014 21:00 16,8 C 14,5 C 77 % 1006,2 hPa 0,0 l/m 0,00 h 0,00 h 0,0 UV-I 0 W/m 6,6 km/h (2 Bft)
13.08.2014 22:00 15,3 C 13,3 C 83 % 1006,9 hPa 0,0 l/m 0,00 h 0,00 h 0,0 UV-I 0 W/m 7,2 km/h (2 Bft)
13.08.2014 23:00 14,9 C 13,2 C 85 % 1007,4 hPa 0,0 l/m 0,00 h 0,00 h 0,0 UV-I 0 W/m 7,2 km/h (2 Bft)
14.08.2014 00:00 14,6 C 12,8 C 87 % 1007,8 hPa 0,0 l/m 0,00 h 0,00 h 0,0 UV-I 0 W/m 9,2 km/h (2 Bft)
14.08.2014 01:00 14,4 C 13,1 C 91 % 1008,1 hPa 0,0 l/m 0,00 h 0,00 h 0,0 UV-I 0 W/m 20,7 km/h (4 Bft)
14.08.2014 02:00 14,2 C 13,0 C 90 % 1008,2 hPa 0,0 l/m 0,00 h 0,00 h 0,0 UV-I 0 W/m 21,7 km/h (4 Bft)
14.08.2014 03:00 13,8 C 12,7 C 90 % 1008,3 hPa 0,0 l/m 0,00 h 0,00 h 0,0 UV-I 0 W/m 22,3 km/h (4 Bft)
14.08.2014 04:00 13,6 C 12,3 C 91 % 1008,4 hPa 0,0 l/m 0,00 h 0,00 h 0,0 UV-I 0 W/m 24,1 km/h (4 Bft)
14.08.2014 05:00 13,7 C 12,6 C 91 % 1008,4 hPa 0,0 l/m 0,00 h 0,00 h 0,0 UV-I 0 W/m 28,5 km/h (4 Bft)
14.08.2014 06:00 14,0 C 13,0 C 91 % 1008,6 hPa 0,0 l/m 0,00 h 0,00 h 0,0 UV-I 13 W/m 20,4 km/h (4 Bft)
14.08.2014 07:00 14,5 C 13,5 C 89 % 1008,9 hPa 0,0 l/m 0,00 h 0,00 h 0,0 UV-I 58 W/m 24,7 km/h (4 Bft)
14.08.2014 08:00 15,0 C 14,2 C 89 % 1009,1 hPa 0,0 l/m 0,00 h 0,00 h 0,0 UV-I 99 W/m 27,9 km/h (4 Bft)
14.08.2014 09:00 15,8 C 15,4 C 89 % 1009,3 hPa 0,0 l/m 0,27 h 0,00 h 0,7 UV-I 192 W/m 34,0 km/h (5 Bft)
14.08.2014 10:00 16,7 C 16,4 C 86 % 1009,4 hPa 0,0 l/m 0,17 h 0,00 h 0,8 UV-I 241 W/m 40,3 km/h (6 Bft)
14.08.2014 11:00 17,4 C 17,2 C 85 % 1009,8 hPa 0,0 l/m 0,20 h 0,00 h 1,3 UV-I 315 W/m 40,9 km/h (6 Bft)
14.08.2014 12:00 18,0 C 18,2 C 84 % 1009,8 hPa 0,0 l/m 0,53 h 0,00 h 2,2 UV-I 421 W/m 39,0 km/h (6 Bft)
14.08.2014 13:00 19,3 C 19,4 C 79 % 1009,5 hPa 0,0 l/m 0,73 h 0,03 h 2,8 UV-I 434 W/m 43,0 km/h (6 Bft)
14.08.2014 14:00 19,8 C 19,6 C 76 % 1009,4 hPa 0,0 l/m 0,63 h 0,00 h 3,0 UV-I 479 W/m 40,9 km/h (6 Bft)
14.08.2014 15:00 16,1 C 14,6 C 87 % 1009,9 hPa 0,2 l/m 0,00 h 0,47 h 1,1 UV-I 143 W/m 22,7 km/h (4 Bft)
14.08.2014 16:00 15,7 C 13,9 C 90 % 1010,2 hPa 0,2 l/m 0,00 h 0,43 h 0,5 UV-I 110 W/m 29,2 km/h (5 Bft)
14.08.2014 17:00 15,5 C 14,3 C 91 % 1010,1 hPa 0,0 l/m 0,00 h 0,10 h 0,0 UV-I 100 W/m 19,5 km/h (3 Bft)
14.08.2014 18:00 16,4 C 15,7 C 87 % 1010,2 hPa 0,0 l/m 0,33 h 0,00 h 0,0 UV-I 181 W/m 21,6 km/h (4 Bft)
14.08.2014 19:00 16,7 C 15,9 C 86 % 1010,1 hPa 0,0 l/m 0,07 h 0,00 h 0,0 UV-I 75 W/m 13,0 km/h (3 Bft)
14.08.2014 20:00 16,0 C 14,7 C 87 % 1010,4 hPa 0,0 l/m 0,00 h 0,00 h 0,0 UV-I 10 W/m 7,7 km/h (2 Bft)
14.08.2014 21:00 15,4 C 14,0 C 90 % 1010,5 hPa 0,0 l/m 0,00 h 0,03 h 0,0 UV-I 0 W/m 6,4 km/h (2 Bft)
14.08.2014 22:00 15,0 C 13,7 C 91 % 1010,4 hPa 0,0 l/m 0,00 h 0,00 h 0,0 UV-I 0 W/m 10,9 km/h (2 Bft)
14.08.2014 23:00 14,7 C 13,3 C 91 % 1010,5 hPa 0,0 l/m 0,00 h 0,00 h 0,0 UV-I 0 W/m 12,9 km/h (3 Bft)
15.08.2014 00:00 14,7 C 13,5 C 91 % 1010,6 hPa 0,0 l/m 0,00 h 0,00 h 0,0 UV-I 0 W/m 7,8 km/h (2 Bft)
15.08.2014 01:00 14,5 C 13,3 C 91 % 1010,5 hPa 0,0 l/m 0,00 h 0,00 h 0,0 UV-I 0 W/m 7,0 km/h (2 Bft)
15.08.2014 02:00 13,9 C 12,7 C 92 % 1010,3 hPa 0,0 l/m 0,00 h 0,00 h 0,0 UV-I 0 W/m 7,7 km/h (2 Bft)
15.08.2014 03:00 13,1 C 11,8 C 93 % 1010,3 hPa 0,0 l/m 0,00 h 0,00 h 0,0 UV-I 0 W/m 3,9 km/h (1 Bft)
15.08.2014 04:00 12,7 C 11,5 C 94 % 1010,2 hPa 0,0 l/m 0,00 h 0,00 h 0,0 UV-I 0 W/m 8,9 km/h (2 Bft)
15.08.2014 05:00 12,8 C 11,9 C 93 % 1010,1 hPa 0,0 l/m 0,00 h 0,00 h 0,0 UV-I 0 W/m 10,8 km/h (2 Bft)
15.08.2014 06:00 13,0 C 12,2 C 94 % 1010,2 hPa 0,0 l/m 0,00 h 0,00 h 0,0 UV-I 7 W/m 1,8 km/h (1 Bft)
15.08.2014 07:00 13,3 C 12,6 C 95 % 1010,4 hPa 0,0 l/m 0,00 h 0,03 h 0,0 UV-I 24 W/m 2,6 km/h (1 Bft)
15.08.2014 08:00 14,0 C 13,6 C 95 % 1010,7 hPa 0,0 l/m 0,00 h 0,03 h 0,0 UV-I 93 W/m 17,5 km/h (3 Bft)
15.08.2014 09:00 14,7 C 14,6 C 92 % 1011,0 hPa 0,0 l/m 0,00 h 0,00 h 0,0 UV-I 159 W/m 24,4 km/h (4 Bft)
15.08.2014 10:00 15,0 C 14,2 C 92 % 1011,4 hPa 0,0 l/m 0,00 h 0,67 h 0,0 UV-I 111 W/m 13,5 km/h (3 Bft)
15.08.2014 11:00 15,6 C 15,5 C 92 % 1011,6 hPa 0,0 l/m 0,00 h 0,07 h 0,6 UV-I 183 W/m 19,8 km/h (4 Bft)
15.08.2014 12:00 16,0 C 15,5 C 92 % 1011,6 hPa 0,0 l/m 0,20 h 0,60 h 1,6 UV-I 312 W/m 29,3 km/h (5 Bft)
15.08.2014 13:00 16,9 C 17,2 C 87 % 1011,7 hPa 0,0 l/m 0,43 h 0,10 h 1,9 UV-I 364 W/m 32,6 km/h (5 Bft)
15.08.2014 14:00 18,8 C 19,1 C 81 % 1011,7 hPa 0,0 l/m 0,83 h 0,00 h 3,1 UV-I 620 W/m 26,7 km/h (4 Bft)
15.08.2014 15:00 17,1 C 15,9 C 83 % 1012,0 hPa 4,0 l/m 0,07 h 0,53 h 1,8 UV-I 158 W/m 31,6 km/h (5 Bft)
15.08.2014 16:00 14,7 C 13,8 C 96 % 1012,3 hPa 0,2 l/m 0,00 h 0,37 h 0,0 UV-I 108 W/m 8,8 km/h (2 Bft)
15.08.2014 17:00 16,5 C 15,8 C 95 % 1012,4 hPa 0,0 l/m 0,83 h 0,43 h 0,5 UV-I 305 W/m 15,2 km/h (3 Bft)
15.08.2014 18:00 16,8 C 15,9 C 90 % 1012,9 hPa 0,0 l/m 0,17 h 0,00 h 0,0 UV-I 141 W/m 19,9 km/h (4 Bft)
15.08.2014 19:00 16,5 C 14,9 C 90 % 1013,2 hPa 0,0 l/m 0,20 h 0,00 h 0,0 UV-I 72 W/m 15,7 km/h (3 Bft)
15.08.2014 20:00 15,3 C 13,8 C 92 % 1013,8 hPa 0,0 l/m 0,00 h 0,07 h 0,0 UV-I 12 W/m 14,2 km/h (3 Bft)
15.08.2014 21:00 14,2 C 12,8 C 93 % 1014,5 hPa 0,0 l/m 0,00 h 0,23 h 0,0 UV-I 0 W/m 14,3 km/h (3 Bft)
15.08.2014 22:00 14,2 C 12,8 C 95 % 1015,1 hPa 0,4 l/m 0,00 h 0,27 h 0,0 UV-I 0 W/m 18,0 km/h (3 Bft)
15.08.2014 23:00 14,0 C 12,8 C 97 % 1015,5 hPa 0,0 l/m 0,00 h 0,03 h 0,0 UV-I 0 W/m 8,3 km/h (2 Bft)
16.08.2014 00:00 13,8 C 12,8 C 97 % 1016,2 hPa 0,0 l/m 0,00 h 0,00 h 0,0 UV-I 0 W/m 12,9 km/h (3 Bft)
16.08.2014 01:00 13,6 C 12,4 C 97 % 1016,5 hPa 0,0 l/m 0,00 h 0,00 h 0,0 UV-I 0 W/m 15,1 km/h (3 Bft)
16.08.2014 02:00 13,0 C 11,9 C 97 % 1016,7 hPa 0,0 l/m 0,00 h 0,00 h 0,0 UV-I 0 W/m 8,4 km/h (2 Bft)
16.08.2014 03:00 13,0 C 12,0 C 98 % 1016,7 hPa 0,0 l/m 0,00 h 0,27 h 0,0 UV-I 0 W/m 12,7 km/h (3 Bft)
16.08.2014 04:00 12,7 C 11,7 C 98 % 1016,7 hPa 0,0 l/m 0,00 h 0,00 h 0,0 UV-I 0 W/m 24,3 km/h (4 Bft)
16.08.2014 05:00 12,7 C 11,7 C 98 % 1016,8 hPa 0,0 l/m 0,00 h 0,03 h 0,0 UV-I 0 W/m 22,5 km/h (4 Bft)
16.08.2014 06:00 12,3 C 11,2 C 98 % 1017,1 hPa 0,0 l/m 0,10 h 0,00 h 0,0 UV-I 20 W/m 14,1 km/h (3 Bft)
16.08.2014 07:00 12,7 C 11,9 C 98 % 1017,4 hPa 0,2 l/m 0,37 h 0,00 h 0,0 UV-I 63 W/m 15,8 km/h (3 Bft)
16.08.2014 08:00 13,6 C 12,7 C 99 % 1017,9 hPa 0,6 l/m 0,00 h 0,13 h 0,0 UV-I 70 W/m 22,0 km/h (4 Bft)
16.08.2014 09:00 14,3 C 13,6 C 98 % 1018,6 hPa 0,0 l/m 0,10 h 0,07 h 0,6 UV-I 160 W/m 23,2 km/h (4 Bft)
16.08.2014 10:00 15,8 C 14,8 C 95 % 1019,0 hPa 0,0 l/m 0,43 h 0,00 h 1,3 UV-I 297 W/m 25,1 km/h (4 Bft)
16.08.2014 11:00 17,8 C 16,0 C 82 % 1019,2 hPa 0,0 l/m 0,80 h 0,00 h 2,8 UV-I 593 W/m 23,9 km/h (4 Bft)
16.08.2014 12:00 19,3 C 17,9 C 76 % 1018,9 hPa 0,0 l/m 0,70 h 0,00 h 3,3 UV-I 532 W/m 25,1 km/h (4 Bft)
16.08.2014 13:00 19,6 C 18,9 C 72 % 1018,7 hPa 0,2 l/m 0,53 h 0,10 h 3,1 UV-I 445 W/m 29,1 km/h (5 Bft)
16.08.2014 14:00 17,7 C 15,8 C 81 % 1018,8 hPa 0,0 l/m 0,13 h 0,37 h 1,4 UV-I 239 W/m 35,3 km/h (5 Bft)
16.08.2014 15:00 17,1 C 16,1 C 83 % 1018,3 hPa 3,0 l/m 0,00 h 0,33 h 1,1 UV-I 141 W/m 10,0 km/h (2 Bft)
16.08.2014 16:00 16,3 C 15,6 C 95 % 1018,4 hPa 0,4 l/m 0,30 h 0,10 h 1,0 UV-I 254 W/m 18,9 km/h (3 Bft)
16.08.2014 17:00 17,3 C 16,0 C 87 % 1018,2 hPa 0,0 l/m 0,17 h 0,00 h 0,7 UV-I 214 W/m 35,1 km/h (5 Bft)
16.08.2014 18:00 16,9 C 15,3 C 78 % 1017,9 hPa 0,0 l/m 0,13 h 0,00 h 0,0 UV-I 148 W/m 40,3 km/h (6 Bft)
16.08.2014 19:00 16,3 C 14,8 C 78 % 1017,8 hPa 0,0 l/m 0,00 h 0,00 h 0,0 UV-I 74 W/m 28,9 km/h (5 Bft)
16.08.2014 20:00 15,1 C 13,3 C 84 % 1017,6 hPa 0,0 l/m 0,33 h 0,00 h 0,0 UV-I 29 W/m 3,0 km/h (1 Bft)
16.08.2014 21:00 14,0 C 12,3 C 88 % 1017,8 hPa 0,0 l/m 0,00 h 0,00 h 0,0 UV-I 0 W/m 5,9 km/h (2 Bft)
16.08.2014 22:00 14,0 C 12,3 C 87 % 1017,5 hPa 0,0 l/m 0,00 h 0,00 h 0,0 UV-I 0 W/m 13,4 km/h (3 Bft)
16.08.2014 23:00 13,1 C 11,3 C 90 % 1017,1 hPa 0,0 l/m 0,00 h 0,00 h 0,0 UV-I 0 W/m 7,1 km/h (2 Bft)
17.08.2014 00:00 13,0 C 11,4 C 91 % 1016,6 hPa 0,0 l/m 0,00 h 0,00 h 0,0 UV-I 0 W/m 11,5 km/h (2 Bft)
17.08.2014 01:00 13,3 C 12,0 C 90 % 1016,2 hPa 0,0 l/m 0,00 h 0,00 h 0,0 UV-I 0 W/m 19,4 km/h (3 Bft)
17.08.2014 02:00 13,0 C 11,8 C 91 % 1015,6 hPa 0,0 l/m 0,00 h 0,00 h 0,0 UV-I 0 W/m 24,4 km/h (4 Bft)
17.08.2014 03:00 12,7 C 11,7 C 90 % 1015,1 hPa 0,0 l/m 0,00 h 0,00 h 0,0 UV-I 0 W/m 23,4 km/h (4 Bft)
17.08.2014 04:00 12,6 C 11,5 C 91 % 1014,4 hPa 0,0 l/m 0,00 h 0,00 h 0,0 UV-I 0 W/m 29,2 km/h (5 Bft)
17.08.2014 05:00 12,5 C 11,4 C 92 % 1014,0 hPa 0,0 l/m 0,00 h 0,00 h 0,0 UV-I 0 W/m 29,0 km/h (5 Bft)
17.08.2014 06:00 12,5 C 11,5 C 92 % 1013,6 hPa 0,0 l/m 0,37 h 0,00 h 0,0 UV-I 22 W/m 28,2 km/h (4 Bft)
17.08.2014 07:00 13,1 C 12,1 C 91 % 1013,1 hPa 0,0 l/m 1,00 h 0,00 h 0,0 UV-I 112 W/m 36,5 km/h (5 Bft)
17.08.2014 08:00 14,1 C 13,2 C 89 % 1012,7 hPa 0,0 l/m 0,57 h 0,00 h 0,0 UV-I 149 W/m 39,7 km/h (6 Bft)
17.08.2014 09:00 15,4 C 14,5 C 84 % 1012,3 hPa 0,0 l/m 0,67 h 0,00 h 0,6 UV-I 318 W/m 51,8 km/h (7 Bft)
17.08.2014 10:00 15,8 C 15,0 C 82 % 1011,9 hPa 0,0 l/m 0,07 h 0,00 h 0,9 UV-I 191 W/m 43,7 km/h (6 Bft)
17.08.2014 11:00 16,3 C 15,3 C 79 % 1011,5 hPa 0,0 l/m 0,07 h 0,07 h 0,8 UV-I 172 W/m 54,2 km/h (7 Bft)
17.08.2014 12:00 15,7 C 14,9 C 83 % 1011,1 hPa 0,0 l/m 0,00 h 0,17 h 1,1 UV-I 201 W/m 61,8 km/h (7 Bft)
17.08.2014 13:00 17,2 C 16,6 C 77 % 1010,3 hPa 0,0 l/m 0,40 h 0,07 h 2,3 UV-I 334 W/m 55,1 km/h (7 Bft)
17.08.2014 14:00 18,0 C 17,5 C 74 % 1009,6 hPa 0,0 l/m 0,63 h 0,00 h 2,4 UV-I 397 W/m 66,5 km/h (8 Bft)
17.08.2014 15:00 17,7 C 16,7 C 74 % 1009,2 hPa 0,0 l/m 0,10 h 0,00 h 1,1 UV-I 204 W/m 68,9 km/h (8 Bft)
17.08.2014 16:00 18,1 C 17,4 C 74 % 1008,6 hPa 0,0 l/m 0,47 h 0,00 h 1,6 UV-I 331 W/m 62,4 km/h (8 Bft)
17.08.2014 17:00 18,1 C 16,9 C 74 % 1008,0 hPa 0,0 l/m 0,30 h 0,00 h 0,5 UV-I 223 W/m 68,8 km/h (8 Bft)
17.08.2014 18:00 17,1 C 15,8 C 78 % 1007,7 hPa 0,0 l/m 0,00 h 0,10 h 0,0 UV-I 78 W/m 62,9 km/h (8 Bft)
17.08.2014 19:00 15,1 C 13,2 C 91 % 1007,2 hPa 0,6 l/m 0,17 h 0,20 h 0,0 UV-I 67 W/m 50,9 km/h (7 Bft)
17.08.2014 20:00 15,1 C 12,8 C 90 % 1006,7 hPa 0,0 l/m 0,00 h 0,00 h 0,0 UV-I 13 W/m 45,4 km/h (6 Bft)
17.08.2014 21:00 15,3 C 12,8 C 87 % 1006,4 hPa 0,0 l/m 0,00 h 0,20 h 0,0 UV-I 0 W/m 53,6 km/h (7 Bft)
17.08.2014 22:00 13,3 C 11,7 C 93 % 1006,9 hPa 4,8 l/m 0,00 h 1,00 h 0,0 UV-I 0 W/m 42,2 km/h (6 Bft)
17.08.2014 23:00 12,9 C 11,6 C 96 % 1006,5 hPa 0,2 l/m 0,00 h 0,77 h 0,0 UV-I 0 W/m 31,1 km/h (5 Bft)
Min-Datum _ 13.08.14 13.08.14 11.08.14 13.08.14 - - - - - 12.08.14
_ Min-Zeit 05:48 05:20 16:28 12:54 - - - - - 21:06
Minimum _ 11,8 C 10,6 C 55 % 1004,1 hPa - - - - - 0,0 km/h (0 Bft)
Max-Datum _ 11.08.14 11.08.14 13.08.14 16.08.14 17.08.14 11.08.14 11.08.14 12.08.14 16.08.14 17.08.14
_ Max-Zeit 14:44 16:30 07:48 10:56 22:10 06:28 15:14 13:22 13:34 15:50
Maximum _ 22,4 C 23,9 C 99 % 1019,3 hPa 4,8 l/m 0,03 h 0,03 h 4,6 UV-I 956 W/m 106,1 km/h
W (11 Bft)
Durchschnitt _ 15,7 C 14,6 C 86 % 1010,9 hPa #24,2 l/m #34:46 h #11:46 h 1,7 UV-I 231 W/m 26,6 km/h (4 Bft)
© 2014 W. Hausmann